Richland, Mississippi
Current Conditions -  °F | °C
As of 11:54 AM on Saturday 20 Dec 2014 (Local Time) from KJAN Reporting Station
Clear Clear  
Wind Chill: 50°   Ceiling: Unl
Heat Index: 50°   Visibility: 10mi
Dew Point: 42°   Wind: 8mph
Humidity: 74%   Direction: 10°N
Pressure: 30.2"   Gusts: NA
Location:  32.2326°N, 90.165°W
Report Text: KJAN 201754Z 01007KT 10SM CLR 10/06 A3020 RMK AO2 SLP226 T01000056 10106 20061 58011
Loading
Personal Weather Stations






























Interactive Weather Map New forecast layout! Learn more

10-Day Weather Forecast

Advertisements
Track Severe Weather on mobile